createdAt,value
2018-01-01T00:01:02.065Z,6.70
2018-01-01T00:03:27.995Z,6.67
2018-01-01T00:05:54.839Z,6.76
2018-01-01T00:08:20.760Z,6.79
2018-01-01T00:10:47.832Z,6.79
2018-01-01T00:13:13.829Z,6.78
2018-01-01T00:15:39.793Z,6.77
2018-01-01T00:18:05.729Z,6.77
2018-01-01T00:20:31.695Z,6.78
2018-01-01T00:22:57.648Z,6.78
2018-01-01T00:25:23.604Z,6.79
2018-01-01T00:27:49.536Z,6.80
2018-01-01T00:30:15.465Z,6.81
2018-01-01T00:32:41.404Z,6.82
2018-01-01T00:35:07.344Z,6.84
2018-01-01T00:37:33.289Z,6.84
2018-01-01T00:39:59.215Z,6.83
2018-01-01T00:42:25.182Z,6.81
2018-01-01T00:44:51.235Z,6.78
2018-01-01T00:47:17.211Z,6.86
2018-01-01T00:49:43.150Z,6.79
2018-01-01T00:52:09.070Z,6.76
2018-01-01T00:54:36.009Z,6.83
2018-01-01T00:59:33.322Z,6.82
2018-01-01T01:01:59.328Z,6.80
2018-01-01T01:04:28.327Z,6.78
2018-01-01T01:06:54.253Z,6.78
2018-01-01T01:09:20.215Z,6.79
2018-01-01T01:11:46.141Z,6.79
2018-01-01T01:14:12.110Z,6.79
2018-01-01T01:16:38.065Z,6.81
2018-01-01T01:19:04.059Z,6.81
2018-01-01T01:21:29.997Z,6.82
2018-01-01T01:23:55.953Z,6.84
2018-01-01T01:26:21.923Z,6.83
2018-01-01T01:28:47.857Z,6.82
2018-01-01T01:31:13.809Z,6.79
2018-01-01T01:33:39.747Z,6.76
2018-01-01T01:36:05.710Z,6.73
2018-01-01T01:38:31.637Z,6.67
2018-01-01T01:40:57.584Z,6.75
2018-01-01T01:43:23.513Z,6.78
2018-01-01T01:45:49.429Z,6.78
2018-01-01T01:48:15.383Z,6.77
2018-01-01T01:50:41.309Z,6.76
2018-01-01T01:53:07.270Z,6.75
2018-01-01T01:55:33.213Z,6.74
2018-01-01T01:57:59.169Z,6.75
2018-01-01T02:00:25.105Z,6.74
2018-01-01T02:02:51.077Z,6.76
2018-01-01T02:05:17.033Z,6.77
2018-01-01T02:07:42.962Z,6.78
2018-01-01T02:10:08.907Z,6.79
2018-01-01T02:12:34.842Z,6.79
2018-01-01T02:15:00.821Z,6.76
2018-01-01T02:17:26.747Z,6.75
2018-01-01T02:19:52.674Z,6.73
2018-01-01T02:22:18.617Z,6.69
2018-01-01T02:24:44.533Z,6.66
2018-01-01T02:27:10.479Z,6.70
2018-01-01T02:29:36.407Z,6.73
2018-01-01T02:32:02.373Z,6.73
2018-01-01T02:34:28.302Z,6.72
2018-01-01T02:36:54.265Z,6.72
2018-01-01T02:39:20.200Z,6.70
2018-01-01T02:41:46.231Z,6.70
2018-01-01T02:44:12.974Z,6.70
2018-01-01T02:46:38.912Z,6.70
2018-01-01T02:49:04.839Z,6.71
2018-01-01T02:51:30.766Z,6.71
2018-01-01T02:53:56.725Z,6.72
2018-01-01T02:56:22.653Z,6.72
2018-01-01T02:58:48.605Z,6.74
2018-01-01T03:01:14.557Z,6.72
2018-01-01T03:03:40.477Z,6.48
2018-01-01T03:06:06.410Z,6.68
2018-01-01T03:08:32.347Z,6.66
2018-01-01T03:10:58.330Z,6.62
2018-01-01T03:13:24.262Z,6.61
2018-01-01T03:15:50.209Z,6.67
2018-01-01T03:18:16.151Z,6.68
2018-01-01T03:20:42.116Z,6.67
2018-01-01T03:23:08.039Z,6.67
2018-01-01T03:25:34.010Z,6.65
2018-01-01T03:27:59.945Z,6.63
2018-01-01T03:30:25.894Z,6.64
2018-01-01T03:32:51.823Z,6.64
2018-01-01T03:35:17.813Z,6.64
2018-01-01T03:37:43.773Z,6.65
2018-01-01T03:40:09.716Z,6.65
2018-01-01T03:42:35.667Z,6.65
2018-01-01T03:45:01.582Z,6.67
2018-01-01T03:47:27.510Z,6.65
2018-01-01T03:49:53.449Z,6.63
2018-01-01T03:52:19.370Z,6.62
2018-01-01T03:54:45.295Z,6.59
2018-01-01T03:57:11.259Z,6.56
2018-01-01T03:59:37.180Z,6.51
